Time;durP1;ratioP1;P1;durP2;ratioP2;P2;SDS_P1;SDS_P2;PMS_P1;PMS_P2;Temp;Humidity;BMP_temperature;BMP_pressure;BME280_temperature;BME280_humidity;BME280_pressure;Samples;Min_cycle;Max_cycle;Signal;HPM_P1;HPM_P2
2022/10/11 00:00:51;;;;;;;9.80;2.08;;;7.60;99.90;;;;;;5073617;28;20859;-69
2022/10/11 00:03:17;;;;;;;9.98;2.30;;;7.60;99.90;;;;;;5081490;28;20035;-69
2022/10/11 00:05:43;;;;;;;19.63;2.40;;;7.60;99.90;;;;;;5067569;28;20050;-69
2022/10/11 00:08:12;;;;;;;10.30;2.28;;;7.60;99.90;;;;;;5072426;28;20127;-69
2022/10/11 00:10:38;;;;;;;10.57;2.00;;;7.50;99.90;;;;;;5096316;28;20078;-70
2022/10/11 00:13:05;;;;;;;10.75;2.15;;;7.60;99.90;;;;;;5072776;28;20059;-69
2022/10/11 00:15:30;;;;;;;10.88;1.92;;;7.50;99.90;;;;;;5058594;28;20127;-69
2022/10/11 00:17:56;;;;;;;12.88;2.53;;;7.50;99.90;;;;;;5074199;28;20120;-69
2022/10/11 00:20:22;;;;;;;11.07;2.13;;;7.50;99.90;;;;;;5056474;28;20472;-69
2022/10/11 00:22:48;;;;;;;9.48;1.70;;;7.40;99.90;;;;;;5062515;28;20440;-69
2022/10/11 00:25:14;;;;;;;7.45;1.70;;;7.40;99.90;;;;;;5073210;28;20048;-69
2022/10/11 00:27:40;;;;;;;11.50;1.85;;;7.40;99.90;;;;;;5063068;28;20048;-69
2022/10/11 00:30:10;;;;;;;13.77;1.98;;;7.40;99.90;;;;;;5053107;28;20090;-69
2022/10/11 00:32:37;;;;;;;16.17;2.35;;;7.40;99.90;;;;;;5061923;28;20535;-69
2022/10/11 00:35:05;;;;;;;9.07;1.55;;;7.50;99.90;;;;;;5067549;28;20044;-69
2022/10/11 00:37:33;;;;;;;9.57;1.80;;;7.40;99.90;;;;;;5064744;28;20057;-69
2022/10/11 00:39:59;;;;;;;9.18;1.73;;;7.30;99.90;;;;;;5071943;28;20043;-69
2022/10/11 00:42:25;;;;;;;11.57;1.67;;;7.30;99.90;;;;;;5075139;28;20044;-69
2022/10/11 00:44:51;;;;;;;9.63;1.40;;;7.30;99.90;;;;;;5071648;28;20044;-69
2022/10/11 00:47:20;;;;;;;7.03;1.58;;;7.30;99.90;;;;;;5066281;28;20047;-69
2022/10/11 00:49:54;;;;;;;14.10;1.60;;;7.30;99.90;;;;;;5063244;28;20044;-69
2022/10/11 00:52:30;;;;;;;10.65;2.13;;;7.30;99.90;;;;;;5067865;28;20050;-69
2022/10/11 00:55:07;;;;;;;8.98;1.70;;;7.30;99.90;;;;;;5071056;28;20573;-69
2022/10/11 00:57:38;;;;;;;16.08;1.90;;;7.30;99.90;;;;;;5064602;28;20055;-69
2022/10/11 01:00:09;;;;;;;11.32;2.13;;;7.30;99.90;;;;;;5080170;28;20071;-69
2022/10/11 01:02:35;;;;;;;;;;;7.30;99.90;;;;;;5072939;28;20063;-69
2022/10/11 01:05:01;;;;;;;12.05;1.88;;;7.30;99.90;;;;;;5070710;28;19920;-69
2022/10/11 01:07:30;;;;;;;12.75;1.73;;;7.20;99.90;;;;;;5069498;28;20408;-69
2022/10/11 01:09:56;;;;;;;10.27;1.30;;;7.30;99.90;;;;;;5068991;28;20410;-69
2022/10/11 01:12:25;;;;;;;7.47;1.48;;;7.20;99.90;;;;;;5081125;28;20047;-69
2022/10/11 01:15:06;;;;;;;9.32;1.48;;;7.30;99.90;;;;;;5074346;28;20466;-69
2022/10/11 01:17:59;;;;;;;10.75;1.83;;;7.20;99.90;;;;;;5070098;28;20499;-68
2022/10/11 01:21:06;;;;;;;9.05;1.85;;;7.20;99.90;;;;;;5062426;28;20789;-68
2022/10/11 01:23:46;;;;;;;9.10;1.70;;;7.20;99.90;;;;;;5060016;28;20063;-68
2022/10/11 01:26:44;;;;;;;8.65;1.98;;;7.10;99.90;;;;;;5073132;28;20056;-68
2022/10/11 01:29:46;;;;;;;9.30;1.50;;;7.10;99.90;;;;;;5077852;28;20044;-68
2022/10/11 01:32:20;;;;;;;6.80;1.25;;;7.10;99.90;;;;;;5072381;28;20133;-68
2022/10/11 01:35:04;;;;;;;8.52;1.60;;;7.10;99.90;;;;;;5072046;28;20064;-69
2022/10/11 01:37:41;;;;;;;9.93;1.50;;;7.10;99.90;;;;;;5065365;28;20056;-68
2022/10/11 01:40:22;;;;;;;7.30;1.35;;;7.00;99.90;;;;;;5074641;28;20052;-68
2022/10/11 01:42:48;;;;;;;11.18;1.75;;;7.00;99.90;;;;;;5058914;28;20056;-68
2022/10/11 01:45:17;;;;;;;10.23;1.52;;;7.00;99.90;;;;;;5077114;28;20574;-68
2022/10/11 01:47:44;;;;;;;11.10;1.65;;;7.00;99.90;;;;;;5072743;28;20083;-68
2022/10/11 01:50:35;;;;;;;10.90;1.70;;;7.00;99.90;;;;;;5072489;28;20040;-68
2022/10/11 01:53:10;;;;;;;10.38;2.40;;;6.90;99.90;;;;;;5067030;28;20390;-68
2022/10/11 01:56:04;;;;;;;7.32;1.40;;;6.90;99.90;;;;;;5073180;28;20063;-68
2022/10/11 01:58:36;;;;;;;7.22;1.50;;;6.90;99.90;;;;;;5075524;28;20075;-68
2022/10/11 02:01:30;;;;;;;7.43;1.60;;;6.90;99.90;;;;;;5077141;28;20115;-68
2022/10/11 02:03:56;;;;;;;9.57;1.30;;;6.80;99.90;;;;;;5073904;28;20040;-68
2022/10/11 02:06:40;;;;;;;8.95;1.52;;;6.80;99.90;;;;;;5069168;28;20044;-69
2022/10/11 02:09:15;;;;;;;8.20;1.42;;;6.80;99.90;;;;;;5073831;28;20049;-69
2022/10/11 02:11:41;;;;;;;7.88;1.65;;;6.80;99.90;;;;;;5080298;28;20119;-69
2022/10/11 02:14:15;;;;;;;8.02;1.60;;;6.70;99.90;;;;;;5081261;28;20040;-69
2022/10/11 02:16:42;;;;;;;9.38;1.42;;;6.70;99.90;;;;;;5081920;28;20049;-69
2022/10/11 02:19:11;;;;;;;11.23;1.50;;;6.70;99.90;;;;;;5076143;28;20674;-69
2022/10/11 02:21:41;;;;;;;10.82;1.90;;;6.70;99.90;;;;;;5077592;28;20513;-69
2022/10/11 02:24:20;;;;;;;8.77;1.70;;;6.70;99.90;;;;;;5061227;28;20143;-68
2022/10/11 02:26:52;;;;;;;12.02;1.45;;;6.70;99.90;;;;;;5086386;28;20059;-69
2022/10/11 02:29:21;;;;;;;13.30;1.70;;;6.60;99.90;;;;;;5075798;28;20043;-69
2022/10/11 02:31:49;;;;;;;10.13;1.70;;;6.80;99.90;;;;;;5074825;28;20583;-69
2022/10/11 02:34:26;;;;;;;15.00;1.92;;;6.70;99.90;;;;;;5078970;28;20043;-69
2022/10/11 02:36:55;;;;;;;9.80;1.50;;;6.50;99.90;;;;;;5071098;28;20148;-69
2022/10/11 02:39:30;;;;;;;12.93;2.00;;;6.60;99.90;;;;;;5077378;28;20067;-69
2022/10/11 02:42:01;;;;;;;6.80;1.42;;;6.50;99.90;;;;;;5079539;28;20063;-69
2022/10/11 02:44:52;;;;;;;13.88;2.28;;;6.50;99.90;;;;;;5079597;28;20171;-69
2022/10/11 02:47:18;;;;;;;13.05;1.83;;;6.50;99.90;;;;;;5071082;28;20087;-69
2022/10/11 02:49:44;;;;;;;11.40;1.65;;;6.50;99.90;;;;;;5090332;28;20081;-69
2022/10/11 02:52:10;;;;;;;7.95;1.20;;;6.50;99.90;;;;;;5067465;28;20044;-69
2022/10/11 02:54:36;;;;;;;11.90;1.50;;;6.50;99.90;;;;;;5072040;28;20404;-69
2022/10/11 02:57:01;;;;;;;14.77;1.95;;;6.50;99.90;;;;;;5073407;28;20063;-68
2022/10/11 02:59:27;;;;;;;9.20;1.58;;;6.50;99.90;;;;;;5081225;28;20127;-68
2022/10/11 03:01:53;;;;;;;8.68;1.77;;;6.50;99.90;;;;;;5073513;28;20046;-68
2022/10/11 03:04:18;;;;;;;9.93;1.70;;;6.40;99.90;;;;;;5079745;28;20033;-68
2022/10/11 03:06:44;;;;;;;7.97;1.60;;;6.50;99.90;;;;;;5074354;28;20079;-68
2022/10/11 03:09:10;;;;;;;6.93;1.20;;;6.40;99.90;;;;;;5081565;28;20056;-68
2022/10/11 03:11:36;;;;;;;9.38;1.70;;;6.40;99.90;;;;;;5078269;28;20460;-69
2022/10/11 03:14:01;;;;;;;8.75;1.80;;;6.40;99.90;;;;;;5080889;28;20043;-68
2022/10/11 03:16:27;;;;;;;14.52;2.03;;;6.40;99.90;;;;;;5078889;28;20496;-68
2022/10/11 03:18:53;;;;;;;10.10;3.13;;;6.40;99.90;;;;;;5076989;28;20040;-68
2022/10/11 03:21:18;;;;;;;9.05;1.80;;;6.30;99.90;;;;;;5081999;28;20459;-68
2022/10/11 03:23:44;;;;;;;13.02;2.00;;;6.30;99.90;;;;;;5076999;28;20393;-68
2022/10/11 03:26:10;;;;;;;7.70;1.75;;;6.30;99.90;;;;;;5080321;28;20124;-68
2022/10/11 03:28:36;;;;;;;7.82;1.50;;;6.30;99.90;;;;;;5083103;28;20043;-68
2022/10/11 03:31:01;;;;;;;11.27;2.40;;;6.30;99.90;;;;;;5074650;28;20575;-68
2022/10/11 03:33:27;;;;;;;8.65;2.10;;;6.40;99.90;;;;;;5071875;28;20405;-68
2022/10/11 03:35:53;;;;;;;7.88;1.23;;;6.30;99.90;;;;;;5074635;28;20035;-68
2022/10/11 03:38:20;;;;;;;9.15;1.30;;;6.30;99.90;;;;;;5060730;28;20123;-68
2022/10/11 03:40:46;;;;;;;9.82;1.60;;;6.30;99.90;;;;;;5067950;28;20043;-68
2022/10/11 03:43:12;;;;;;;10.82;2.60;;;6.40;99.90;;;;;;5064308;28;20703;-68
2022/10/11 03:45:38;;;;;;;14.38;1.80;;;6.20;99.90;;;;;;5077357;28;20040;-68
2022/10/11 03:48:04;;;;;;;11.40;1.65;;;6.30;99.90;;;;;;5070138;28;20037;-68
2022/10/11 03:50:30;;;;;;;10.45;1.80;;;6.20;99.90;;;;;;5069932;28;20044;-68
2022/10/11 03:52:56;;;;;;;10.65;1.95;;;6.30;99.90;;;;;;5076414;28;20193;-68
2022/10/11 03:55:21;;;;;;;12.68;1.60;;;6.30;99.90;;;;;;5080146;28;20035;-68
2022/10/11 03:57:47;;;;;;;7.68;1.73;;;6.30;99.90;;;;;;5072801;28;20051;-68
2022/10/11 04:00:13;;;;;;;7.50;1.33;;;6.30;99.90;;;;;;5073359;28;20053;-68
2022/10/11 04:02:38;;;;;;;14.20;1.83;;;6.30;99.90;;;;;;5071635;28;20152;-68
2022/10/11 04:05:05;;;;;;;13.43;2.50;;;6.60;99.90;;;;;;5062621;28;20033;-69
2022/10/11 04:07:31;;;;;;;10.02;1.63;;;6.40;99.90;;;;;;5059978;28;20056;-69
2022/10/11 04:09:57;;;;;;;14.05;2.05;;;6.40;99.90;;;;;;5091496;28;20117;-68
2022/10/11 04:12:23;;;;;;;12.82;2.08;;;6.60;99.90;;;;;;5066547;28;20111;-68
2022/10/11 04:14:49;;;;;;;9.10;1.88;;;6.40;99.90;;;;;;5056666;28;20343;-68
2022/10/11 04:17:15;;;;;;;13.77;1.85;;;6.40;99.90;;;;;;5059913;28;20041;-68
2022/10/11 04:19:40;;;;;;;10.02;2.00;;;6.40;99.90;;;;;;5063267;28;20036;-68
2022/10/11 04:22:06;;;;;;;10.02;1.70;;;6.40;99.90;;;;;;5061147;28;20079;-68
2022/10/11 04:24:32;;;;;;;8.82;1.52;;;6.40;99.90;;;;;;5080236;28;20102;-68
2022/10/11 04:26:58;;;;;;;8.77;1.65;;;6.30;99.90;;;;;;5052385;28;20173;-68
2022/10/11 04:29:24;;;;;;;17.42;1.80;;;6.40;99.90;;;;;;5074087;28;20167;-69
2022/10/11 04:31:50;;;;;;;9.98;1.50;;;6.30;99.90;;;;;;5058674;28;20112;-68
2022/10/11 04:34:16;;;;;;;11.48;1.83;;;6.40;99.90;;;;;;5055892;28;20524;-68
2022/10/11 04:36:42;;;;;;;11.90;2.08;;;6.30;99.90;;;;;;5061086;28;20072;-68
2022/10/11 04:39:10;;;;;;;11.40;1.73;;;6.30;99.90;;;;;;5059651;28;20391;-69
2022/10/11 04:41:35;;;;;;;10.75;1.70;;;6.40;99.90;;;;;;5064022;28;20124;-68
2022/10/11 04:44:02;;;;;;;14.13;1.88;;;6.30;99.90;;;;;;5066309;28;20306;-68
2022/10/11 04:46:28;;;;;;;9.77;1.50;;;6.30;99.90;;;;;;5063647;28;20120;-68
2022/10/11 04:48:53;;;;;;;9.60;1.63;;;6.30;99.90;;;;;;5055598;28;20161;-68
2022/10/11 04:51:19;;;;;;;10.40;2.47;;;6.30;99.90;;;;;;5062989;28;20044;-68
2022/10/11 04:53:47;;;;;;;13.25;2.15;;;6.30;99.90;;;;;;5056054;28;20049;-69
2022/10/11 04:56:15;;;;;;;12.07;1.40;;;6.30;99.90;;;;;;5063491;28;20568;-69
2022/10/11 04:58:41;;;;;;;12.73;1.65;;;6.30;99.90;;;;;;5073486;28;20036;-68
2022/10/11 05:01:08;;;;;;;10.43;1.90;;;6.30;99.90;;;;;;5058990;28;20101;-68
2022/10/11 05:03:34;;;;;;;10.32;2.38;;;6.30;99.90;;;;;;5059676;28;20049;-69
2022/10/11 05:06:00;;;;;;;9.10;1.70;;;6.40;99.90;;;;;;5051610;28;20530;-68
2022/10/11 05:08:26;;;;;;;13.40;2.00;;;6.30;99.90;;;;;;5051906;28;20178;-68
2022/10/11 05:10:56;;;;;;;17.88;2.28;;;6.30;99.90;;;;;;5050937;28;20170;-68
2022/10/11 05:13:23;;;;;;;14.73;1.95;;;6.30;99.90;;;;;;5068782;28;20501;-69
2022/10/11 05:15:49;;;;;;;17.27;2.03;;;6.40;99.90;;;;;;5038329;28;20198;-68
2022/10/11 05:18:15;;;;;;;12.77;2.00;;;6.40;99.90;;;;;;5060745;28;20701;-68
2022/10/11 05:20:41;;;;;;;13.60;1.88;;;6.40;99.90;;;;;;5052517;28;20055;-68
2022/10/11 05:23:07;;;;;;;13.75;1.98;;;6.40;99.90;;;;;;5042229;28;20041;-68
2022/10/11 05:25:33;;;;;;;15.07;1.88;;;6.40;99.90;;;;;;5074591;28;20416;-68
2022/10/11 05:27:59;;;;;;;12.93;2.10;;;6.40;99.90;;;;;;5042153;28;20048;-68
2022/10/11 05:30:25;;;;;;;14.25;2.00;;;6.40;99.90;;;;;;5040390;28;20056;-68
2022/10/11 05:32:50;;;;;;;13.90;1.80;;;6.70;99.90;;;;;;5046624;28;20043;-69
2022/10/11 05:35:16;;;;;;;11.55;1.80;;;6.50;99.90;;;;;;5058126;28;20098;-68
2022/10/11 05:37:42;;;;;;;10.18;2.10;;;6.50;99.90;;;;;;5047568;28;20079;-68
2022/10/11 05:40:09;;;;;;;14.93;2.47;;;6.50;99.90;;;;;;5040322;28;20501;-68
2022/10/11 05:42:35;;;;;;;16.88;2.00;;;6.50;99.90;;;;;;5044050;28;20044;-68
2022/10/11 05:45:02;;;;;;;9.00;1.48;;;6.40;99.90;;;;;;5042569;28;20626;-68
2022/10/11 05:47:28;;;;;;;14.75;2.05;;;6.50;99.90;;;;;;5055223;28;20040;-68
2022/10/11 05:49:53;;;;;;;10.50;1.73;;;6.50;99.90;;;;;;5053137;28;20060;-68
2022/10/11 05:52:20;;;;;;;7.55;1.58;;;6.50;99.90;;;;;;5058551;28;20041;-68
2022/10/11 05:54:47;;;;;;;13.70;2.50;;;6.50;99.90;;;;;;5062390;28;20174;-68
2022/10/11 05:57:13;;;;;;;9.93;1.80;;;6.40;99.90;;;;;;5058279;28;20053;-68
2022/10/11 05:59:38;;;;;;;14.60;1.63;;;6.50;99.90;;;;;;5056084;28;20056;-68
2022/10/11 06:02:05;;;;;;;9.88;2.13;;;6.40;99.90;;;;;;5050837;28;20033;-69
2022/10/11 06:04:30;;;;;;;13.55;2.22;;;6.40;99.90;;;;;;5083087;28;20135;-68
2022/10/11 06:06:56;;;;;;;10.48;2.17;;;6.40;99.90;;;;;;5058938;28;20142;-69
2022/10/11 06:09:22;;;;;;;8.93;1.75;;;6.40;99.90;;;;;;5057394;28;20040;-68
2022/10/11 06:11:47;;;;;;;11.90;1.90;;;6.50;99.90;;;;;;5056432;28;20055;-69
2022/10/11 06:14:13;;;;;;;11.13;2.10;;;6.40;99.90;;;;;;5062920;28;20083;-68
2022/10/11 06:16:39;;;;;;;9.55;2.08;;;6.50;99.90;;;;;;5050766;28;20041;-69
2022/10/11 06:19:05;;;;;;;12.93;2.42;;;6.40;99.90;;;;;;5034007;28;20044;-68
2022/10/11 06:21:31;;;;;;;11.30;2.17;;;7.40;99.90;;;;;;5048396;28;20740;-68
2022/10/11 06:24:00;;;;;;;12.85;2.28;;;6.50;99.90;;;;;;5051792;28;20040;-69
2022/10/11 06:26:26;;;;;;;13.77;2.45;;;6.50;99.90;;;;;;5048920;28;20060;-68
2022/10/11 06:28:52;;;;;;;10.50;2.03;;;6.50;99.90;;;;;;5051602;28;20519;-69
2022/10/11 06:31:18;;;;;;;10.25;2.40;;;6.50;99.90;;;;;;5050900;28;20032;-68
2022/10/11 06:33:43;;;;;;;18.23;2.20;;;6.50;99.90;;;;;;5078847;28;20063;-68
2022/10/11 06:36:12;;;;;;;9.80;2.13;;;6.60;99.90;;;;;;5054943;28;20067;-68
2022/10/11 06:38:37;;;;;;;10.68;2.38;;;6.70;99.90;;;;;;5053002;28;20045;-68
2022/10/11 06:41:12;;;;;;;11.48;2.30;;;7.40;99.90;;;;;;5054596;28;20500;-68
2022/10/11 06:43:38;;;;;;;12.57;2.85;;;6.60;99.90;;;;;;5055773;28;20052;-68
2022/10/11 06:46:04;;;;;;;9.77;1.80;;;6.60;99.90;;;;;;5061059;28;20044;-68
2022/10/11 06:48:32;;;;;;;12.05;1.98;;;6.60;99.90;;;;;;5052578;28;20390;-69
2022/10/11 06:50:59;;;;;;;15.20;2.20;;;6.70;99.90;;;;;;5061238;28;20127;-68
2022/10/11 06:53:25;;;;;;;14.63;2.45;;;6.70;99.90;;;;;;5039001;28;20519;-69
2022/10/11 06:55:50;;;;;;;11.85;2.28;;;6.70;99.90;;;;;;5060163;28;20517;-69
2022/10/11 06:58:17;;;;;;;13.50;2.58;;;6.70;99.90;;;;;;5051737;28;20048;-68
2022/10/11 07:00:42;;;;;;;15.15;2.92;;;6.80;99.90;;;;;;5055098;28;20037;-68
2022/10/11 07:03:08;;;;;;;13.57;2.25;;;6.90;99.90;;;;;;5062408;28;20523;-68
2022/10/11 07:05:34;;;;;;;16.40;2.63;;;7.00;99.90;;;;;;5059334;28;20039;-68
2022/10/11 07:08:00;;;;;;;18.55;2.90;;;7.00;99.90;;;;;;5042569;28;20210;-68
2022/10/11 07:10:26;;;;;;;17.20;2.17;;;7.10;99.90;;;;;;5057696;28;20044;-69
2022/10/11 07:12:52;;;;;;;10.98;2.65;;;7.20;99.90;;;;;;5059094;28;20053;-69
2022/10/11 07:15:18;;;;;;;16.10;2.55;;;7.30;99.90;;;;;;5040772;28;20072;-68
2022/10/11 07:17:43;;;;;;;17.85;2.58;;;7.40;99.90;;;;;;5059665;28;20447;-68
2022/10/11 07:20:10;;;;;;;14.50;3.50;;;7.60;99.90;;;;;;5057395;28;20052;-68
2022/10/11 07:22:36;;;;;;;13.98;2.70;;;7.70;99.90;;;;;;5055425;28;20040;-68
2022/10/11 07:25:02;;;;;;;11.55;1.88;;;7.80;99.90;;;;;;5063492;28;20110;-69
2022/10/11 07:27:28;;;;;;;11.77;2.60;;;7.90;99.90;;;;;;5059254;28;20059;-68
2022/10/11 07:29:54;;;;;;;15.93;3.03;;;8.00;99.90;;;;;;5057108;28;20144;-68
2022/10/11 07:32:20;;;;;;;12.85;2.42;;;8.10;99.90;;;;;;5058909;28;20165;-69
2022/10/11 07:34:46;;;;;;;14.93;2.38;;;8.20;99.90;;;;;;5054444;28;20087;-69
2022/10/11 07:37:12;;;;;;;13.88;2.33;;;8.30;99.90;;;;;;5054708;28;20040;-69
2022/10/11 07:39:38;;;;;;;15.95;2.38;;;8.40;99.90;;;;;;5050738;28;20055;-69
2022/10/11 07:42:04;;;;;;;15.45;2.53;;;8.50;99.90;;;;;;5055569;28;20044;-69
2022/10/11 07:44:30;;;;;;;15.93;2.55;;;8.60;99.90;;;;;;5053135;28;20049;-69
2022/10/11 07:46:55;;;;;;;13.40;1.90;;;8.60;99.90;;;;;;5046409;28;20059;-69
2022/10/11 07:49:21;;;;;;;16.25;3.05;;;8.70;99.90;;;;;;5047182;28;20103;-69
2022/10/11 07:51:47;;;;;;;15.05;2.55;;;9.00;99.90;;;;;;5047287;28;21551;-69
2022/10/11 07:54:12;;;;;;;15.90;2.55;;;9.20;99.90;;;;;;5053157;28;20048;-69
2022/10/11 07:56:39;;;;;;;15.70;2.40;;;8.90;99.90;;;;;;5048256;28;20068;-69
2022/10/11 07:59:06;;;;;;;13.85;2.42;;;9.00;99.90;;;;;;5043299;28;20045;-68
2022/10/11 08:01:32;;;;;;;11.52;1.80;;;9.10;99.90;;;;;;5060883;28;20044;-68
2022/10/11 08:03:58;;;;;;;17.85;1.98;;;9.10;99.90;;;;;;5046858;28;20059;-69
2022/10/11 08:06:29;;;;;;;14.60;2.10;;;9.20;99.90;;;;;;5042565;28;20036;-69
2022/10/11 08:08:56;;;;;;;15.63;2.17;;;9.30;99.90;;;;;;5052879;28;20493;-69
2022/10/11 08:11:28;;;;;;;17.70;3.05;;;9.30;99.90;;;;;;5061855;28;20988;-69
2022/10/11 08:13:54;;;;;;;12.93;2.45;;;9.50;99.90;;;;;;5086574;28;20048;-69
2022/10/11 08:16:20;;;;;;;14.57;2.40;;;9.60;99.90;;;;;;5058308;28;20669;-69
2022/10/11 08:18:45;;;;;;;11.13;1.90;;;9.70;99.90;;;;;;5062103;28;20051;-69
2022/10/11 08:21:15;;;;;;;10.65;2.30;;;9.80;99.90;;;;;;5057120;28;20467;-69
2022/10/11 08:23:41;;;;;;;13.80;1.98;;;9.90;99.90;;;;;;5056919;28;20048;-68
2022/10/11 08:26:07;;;;;;;14.75;2.97;;;10.10;99.90;;;;;;5061946;28;20443;-69
2022/10/11 08:28:33;;;;;;;11.20;1.80;;;10.20;99.90;;;;;;5055743;28;20151;-70
2022/10/11 08:30:58;;;;;;;14.77;2.47;;;10.30;99.90;;;;;;5091394;28;20119;-69
2022/10/11 08:33:25;;;;;;;13.07;1.83;;;10.70;99.90;;;;;;5062439;28;20048;-69
2022/10/11 08:35:52;;;;;;;17.58;2.75;;;10.50;99.90;;;;;;5044713;28;20045;-70
2022/10/11 08:38:18;;;;;;;12.05;2.42;;;10.70;99.90;;;;;;5063599;28;20041;-67
2022/10/11 08:40:46;;;;;;;12.35;2.15;;;10.80;99.90;;;;;;5058515;28;20044;-69
2022/10/11 08:43:41;;;;;;;16.02;2.67;;;10.80;99.90;;;;;;5061190;28;20070;-68
2022/10/11 08:46:13;;;;;;;15.93;2.63;;;11.00;99.90;;;;;;5057465;28;20080;-69
2022/10/11 08:48:45;;;;;;;17.88;2.30;;;10.90;99.90;;;;;;5041418;28;20570;-69
2022/10/11 08:51:20;;;;;;;17.20;2.00;;;11.20;99.90;;;;;;5063646;28;20067;-69
2022/10/11 08:54:02;;;;;;;16.20;2.25;;;11.30;99.90;;;;;;5088823;28;20028;-69
2022/10/11 08:56:31;;;;;;;15.50;2.08;;;11.40;99.90;;;;;;5053762;28;20048;-70
2022/10/11 08:59:04;;;;;;;17.77;2.75;;;11.50;99.90;;;;;;5061082;28;20500;-70
2022/10/11 09:01:30;;;;;;;13.27;2.42;;;11.60;99.90;;;;;;5086101;28;20470;-70
2022/10/11 09:03:58;;;;;;;13.02;2.22;;;11.70;99.90;;;;;;5086002;28;20123;-70
2022/10/11 09:06:45;;;;;;;14.60;2.45;;;11.80;99.90;;;;;;5057768;28;20048;-70
2022/10/11 09:09:39;;;;;;;19.42;2.45;;;11.90;99.90;;;;;;5071793;28;20433;-70
2022/10/11 09:12:31;;;;;;;17.55;2.20;;;12.00;99.90;;;;;;5051684;28;20050;-71
2022/10/11 09:15:13;;;;;;;11.88;2.33;;;12.10;99.90;;;;;;5077485;28;20519;-69
2022/10/11 09:18:02;;;;;;;13.88;1.83;;;12.10;99.90;;;;;;5072380;28;20075;-69
2022/10/11 09:20:40;;;;;;;12.73;1.98;;;12.10;99.90;;;;;;5072203;28;20040;-69
2022/10/11 09:23:36;;;;;;;12.80;2.38;;;12.10;99.90;;;;;;5067749;28;20106;-69
2022/10/11 09:26:11;;;;;;;13.52;1.90;;;12.10;99.90;;;;;;5075458;28;20110;-69
2022/10/11 09:28:48;;;;;;;10.57;1.92;;;12.10;99.90;;;;;;5076357;28;20424;-70
2022/10/11 09:31:15;;;;;;;11.32;2.22;;;12.10;99.90;;;;;;5066885;28;20041;-69
2022/10/11 09:33:45;;;;;;;16.58;2.60;;;12.20;99.90;;;;;;5076593;28;20047;-70
2022/10/11 09:36:40;;;;;;;14.93;2.17;;;12.30;99.90;;;;;;5070287;28;20056;-69
2022/10/11 09:39:28;;;;;;;18.60;2.72;;;12.40;99.90;;;;;;5073420;28;20055;-70
2022/10/11 09:42:01;;;;;;;14.18;2.13;;;12.40;99.90;;;;;;5074222;28;20043;-70
2022/10/11 09:44:32;;;;;;;15.18;2.35;;;12.40;99.90;;;;;;5072299;28;20424;-71
2022/10/11 09:46:57;;;;;;;17.35;2.58;;;12.40;99.90;;;;;;5083264;28;20048;-70
2022/10/11 09:49:41;;;;;;;15.07;2.25;;;12.50;99.90;;;;;;5060826;28;20400;-69
2022/10/11 09:52:19;;;;;;;13.93;2.30;;;12.50;99.90;;;;;;5077191;28;20794;-69
2022/10/11 09:54:48;;;;;;;13.75;1.95;;;12.50;99.90;;;;;;5075610;28;20043;-69
2022/10/11 09:57:26;;;;;;;10.02;2.33;;;12.60;99.90;;;;;;5072420;28;20047;-69
2022/10/11 10:00:26;;;;;;;12.40;2.03;;;12.70;99.90;;;;;;5067739;28;20064;-69
2022/10/11 10:02:57;;;;;;;11.15;1.55;;;12.70;99.90;;;;;;5060126;28;20394;-69
2022/10/11 10:05:29;;;;;;;11.07;1.98;;;12.80;99.90;;;;;;5057721;28;20433;-69
2022/10/11 10:08:07;;;;;;;10.63;1.83;;;12.90;99.90;;;;;;5063660;28;20040;-69
2022/10/11 10:10:42;;;;;;;15.95;2.08;;;13.00;99.90;;;;;;5065647;28;20081;-69
2022/10/11 10:13:34;;;;;;;10.48;2.38;;;13.10;99.90;;;;;;5062978;28;20056;-69
2022/10/11 10:16:02;;;;;;;13.68;2.42;;;13.10;99.90;;;;;;5059475;28;20072;-69
2022/10/11 10:18:40;;;;;;;10.45;1.90;;;13.10;99.90;;;;;;5050286;28;20050;-69
2022/10/11 10:21:13;;;;;;;13.27;1.90;;;13.20;99.90;;;;;;5060804;28;20045;-69
2022/10/11 10:23:40;;;;;;;11.25;1.95;;;13.20;99.90;;;;;;5061037;28;20045;-69
2022/10/11 10:26:19;;;;;;;11.38;2.22;;;13.30;99.90;;;;;;5062351;28;20517;-70
2022/10/11 10:28:56;;;;;;;13.50;2.13;;;13.30;99.90;;;;;;5053906;28;20131;-70
2022/10/11 10:31:24;;;;;;;10.45;2.15;;;13.40;99.90;;;;;;5059599;28;20102;-70
2022/10/11 10:33:53;;;;;;;12.65;1.80;;;13.40;99.90;;;;;;5059957;28;20420;-70
2022/10/11 10:36:37;;;;;;;17.67;2.42;;;13.50;99.90;;;;;;5064474;28;20118;-70
2022/10/11 10:39:24;;;;;;;14.52;2.03;;;13.50;99.90;;;;;;5064425;28;20420;-70
2022/10/11 10:41:50;;;;;;;11.18;1.80;;;13.60;99.90;;;;;;5063193;28;20390;-69
2022/10/11 10:44:16;;;;;;;11.35;1.80;;;13.60;99.90;;;;;;5064665;28;20063;-70
2022/10/11 10:47:03;;;;;;;14.40;2.08;;;13.70;99.90;;;;;;5071098;28;20139;-70
2022/10/11 10:49:40;;;;;;;13.00;1.95;;;13.80;99.90;;;;;;5066091;28;20048;-69
2022/10/11 10:52:31;;;;;;;12.70;1.98;;;13.80;99.90;;;;;;5086334;28;20125;-70
2022/10/11 10:55:00;;;;;;;13.27;1.95;;;13.80;99.90;;;;;;5072325;28;20116;-70
2022/10/11 10:58:14;;;;;;;15.63;2.33;;;13.80;99.90;;;;;;5070527;28;20112;-71
2022/10/11 11:00:47;;;;;;;11.68;1.63;;;13.80;99.90;;;;;;5048934;28;20570;-70
2022/10/11 11:03:34;;;;;;;10.70;1.65;;;13.80;99.90;;;;;;5076556;28;20070;-70
2022/10/11 11:06:06;;;;;;;17.95;2.70;;;13.80;99.90;;;;;;5070703;28;20073;-69
2022/10/11 11:09:00;;;;;;;11.40;2.00;;;13.70;99.90;;;;;;5068469;28;20043;-70
2022/10/11 11:11:45;;;;;;;13.35;1.60;;;13.70;99.90;;;;;;5063494;28;20052;-70
2022/10/11 11:14:43;;;;;;;12.63;1.70;;;13.70;99.90;;;;;;5066305;28;20429;-70
2022/10/11 11:17:36;;;;;;;12.98;1.50;;;13.70;99.90;;;;;;5075988;28;20359;-70
2022/10/11 11:20:15;;;;;;;12.20;2.05;;;13.70;99.90;;;;;;5074115;28;20478;-70
2022/10/11 11:23:02;;;;;;;15.82;2.13;;;13.70;99.90;;;;;;5072193;28;20044;-70
2022/10/11 11:25:46;;;;;;;13.18;2.33;;;13.60;99.90;;;;;;5073093;28;20059;-70
2022/10/11 11:28:36;;;;;;;14.45;1.77;;;13.70;99.90;;;;;;5070392;28;20774;-70
2022/10/11 11:31:38;;;;;;;11.32;2.13;;;13.60;99.90;;;;;;5071814;28;20517;-70
2022/10/11 11:34:15;;;;;;;11.27;2.10;;;13.60;99.90;;;;;;5071870;28;20175;-70
2022/10/11 11:36:56;;;;;;;9.85;2.15;;;13.50;99.90;;;;;;5074002;28;20568;-70
2022/10/11 11:39:28;;;;;;;13.55;2.10;;;13.50;99.90;;;;;;5073963;28;20037;-70
2022/10/11 11:42:08;;;;;;;13.40;1.65;;;13.50;99.90;;;;;;5069409;28;20496;-70
2022/10/11 11:44:38;;;;;;;14.93;2.17;;;13.50;99.90;;;;;;5068774;28;20054;-71
2022/10/11 11:47:16;;;;;;;13.20;2.58;;;13.50;99.90;;;;;;5065888;28;20047;-70
2022/10/11 11:50:13;;;;;;;9.00;1.52;;;13.50;99.90;;;;;;5063298;28;20059;-70
2022/10/11 11:52:47;;;;;;;10.27;1.85;;;13.50;99.90;;;;;;5073535;28;20424;-70
2022/10/11 11:55:42;;;;;;;10.80;1.65;;;13.50;99.90;;;;;;5062037;28;20425;-70
2022/10/11 11:58:22;;;;;;;12.80;2.38;;;13.50;99.90;;;;;;5059825;28;20098;-70
2022/10/11 12:00:56;;;;;;;9.65;2.05;;;13.50;99.90;;;;;;5068965;28;20051;-70
2022/10/11 12:03:30;;;;;;;11.20;2.30;;;13.50;99.90;;;;;;5064937;28;20047;-72
2022/10/11 12:06:11;;;;;;;10.57;1.98;;;13.50;99.90;;;;;;5085264;28;20040;-70
2022/10/11 12:08:37;;;;;;;7.45;1.35;;;13.60;99.90;;;;;;5064833;28;20036;-70
2022/10/11 12:11:39;;;;;;;16.27;2.60;;;13.60;99.90;;;;;;5072449;28;20456;-70
2022/10/11 12:14:26;;;;;;;7.88;1.75;;;13.60;99.90;;;;;;5018011;28;20060;-69
2022/10/11 12:17:16;;;;;;;13.60;1.85;;;13.60;99.90;;;;;;5047377;28;20109;-69
2022/10/11 12:19:57;;;;;;;14.43;1.55;;;13.60;99.90;;;;;;5068669;28;20071;-71
2022/10/11 12:22:26;;;;;;;15.18;1.98;;;13.70;99.90;;;;;;5061426;28;20049;-69
2022/10/11 12:24:57;;;;;;;10.13;1.83;;;13.70;99.90;;;;;;5083039;28;20476;-70
2022/10/11 12:27:39;;;;;;;9.02;1.67;;;13.80;99.90;;;;;;5063607;28;20040;-69
2022/10/11 12:30:42;;;;;;;7.18;1.67;;;13.70;99.90;;;;;;5066034;28;20054;-70
2022/10/11 12:33:14;;;;;;;7.70;1.50;;;13.70;99.90;;;;;;5055873;28;20141;-70
2022/10/11 12:35:55;;;;;;;8.82;1.42;;;13.70;99.90;;;;;;5065378;28;20421;-70
2022/10/11 12:38:22;;;;;;;;;;;13.70;99.90;;;;;;5060577;28;20052;-70
2022/10/11 12:40:51;;;;;;;12.50;1.52;;;13.70;99.90;;;;;;5060992;28;19928;-70
2022/10/11 12:43:16;;;;;;;10.30;1.95;;;13.70;99.90;;;;;;5061444;28;20493;-70
2022/10/11 12:45:46;;;;;;;13.00;1.60;;;13.70;99.90;;;;;;5055557;28;20041;-70
2022/10/11 12:48:37;;;;;;;14.38;1.77;;;13.70;99.90;;;;;;5058105;28;20045;-70
2022/10/11 12:51:28;;;;;;;12.93;1.45;;;13.70;99.90;;;;;;5062329;28;20048;-70
2022/10/11 12:53:57;;;;;;;12.38;1.73;;;13.70;99.90;;;;;;5053474;28;20076;-70
2022/10/11 12:57:08;;;;;;;8.88;1.58;;;13.80;99.90;;;;;;5043427;28;20048;-70
2022/10/11 12:59:37;;;;;;;6.43;1.27;;;13.70;99.90;;;;;;5059131;28;20033;-70
2022/10/11 13:02:36;;;;;;;10.88;1.70;;;13.80;99.90;;;;;;5055185;28;20056;-70
2022/10/11 13:05:25;;;;;;;9.90;1.58;;;13.70;99.90;;;;;;5051401;28;20715;-70
2022/10/11 13:07:54;;;;;;;10.63;1.40;;;13.80;99.90;;;;;;5036602;28;20051;-71
2022/10/11 13:10:32;;;;;;;10.43;1.48;;;13.80;99.90;;;;;;5044882;28;20055;-70